Time;durP1;ratioP1;P1;durP2;ratioP2;P2;SDS_P1;SDS_P2;PMS_P1;PMS_P2;Temp;Humidity;BMP_temperature;BMP_pressure;BME280_temperature;BME280_humidity;BME280_pressure;Samples;Min_cycle;Max_cycle;Signal;HPM_P1;HPM_P2
2023/06/25 00:04:46;;;;;;;15.90;12.60;;;;;;;13.75;94.33;99846.76;436548;1253;139605;-61
2023/06/25 00:14:49;;;;;;;15.80;12.80;;;;;;;13.70;94.59;99843.77;436376;1250;141098;-61
2023/06/25 00:24:52;;;;;;;14.40;12.60;;;;;;;13.64;94.78;99841.23;436490;1251;141143;-61
2023/06/25 00:34:57;;;;;;;13.60;10.50;;;;;;;13.49;94.39;99828.02;436372;1251;140044;-60
2023/06/25 00:45:00;;;;;;;18.90;11.80;;;;;;;13.38;94.39;99824.55;436439;1251;141135;-60
2023/06/25 00:55:07;;;;;;;11.90;10.60;;;;;;;13.27;94.52;99818.14;436404;1255;140365;-60
2023/06/25 01:05:16;;;;;;;11.30;10.20;;;;;;;13.14;94.74;99810.09;436808;1254;140342;-60
2023/06/25 01:15:19;;;;;;;12.20;10.90;;;;;;;13.12;95.41;99810.23;436741;1253;140917;-60
2023/06/25 01:25:23;;;;;;;13.40;11.70;;;;;;;13.26;95.86;99803.96;436184;1255;141830;-60
2023/06/25 01:35:26;;;;;;;9.50;8.50;;;;;;;13.21;95.74;99799.24;436605;1253;139516;-62
2023/06/25 01:45:29;;;;;;;12.70;10.40;;;;;;;13.11;95.88;99793.74;436341;1251;139060;-60
2023/06/25 01:55:32;;;;;;;11.60;9.50;;;;;;;13.04;96.28;99792.90;436305;1254;140715;-60
2023/06/25 02:05:35;;;;;;;12.20;10.10;;;;;;;13.04;96.58;99790.63;436500;1253;140800;-60
2023/06/25 02:15:38;;;;;;;10.40;9.10;;;;;;;13.08;96.30;99788.39;436219;1255;140215;-61
2023/06/25 02:25:42;;;;;;;11.10;10.00;;;;;;;13.00;96.45;99787.49;436156;1254;139970;-62
2023/06/25 02:35:45;;;;;;;12.30;10.30;;;;;;;13.01;96.82;99784.45;437076;1254;139447;-62
2023/06/25 02:45:48;;;;;;;10.50;8.90;;;;;;;13.07;96.51;99781.95;437117;1254;139921;-65
2023/06/25 02:55:52;;;;;;;10.90;9.00;;;;;;;13.19;96.37;99780.70;437016;1256;139969;-61
2023/06/25 03:05:55;;;;;;;12.30;10.70;;;;;;;13.44;96.52;99776.62;436812;1251;139791;-61
2023/06/25 03:15:58;;;;;;;11.60;9.10;;;;;;;14.06;96.32;99774.43;436599;1251;140155;-61
2023/06/25 03:26:01;;;;;;;9.70;7.90;;;;;;;15.56;95.46;99773.64;436625;1255;141260;-62
2023/06/25 03:36:05;;;;;;;8.00;6.70;;;;;;;18.47;91.68;99774.27;436483;1250;138982;-61
2023/06/25 03:46:08;;;;;;;14.40;6.70;;;;;;;18.46;85.71;99783.37;436680;1251;139340;-61
2023/06/25 03:56:11;;;;;;;6.50;5.80;;;;;;;18.60;86.28;99787.64;436601;1254;139935;-61
2023/06/25 04:06:14;;;;;;;5.90;5.40;;;;;;;23.85;82.60;99783.45;436485;1251;139141;-62
2023/06/25 04:16:17;;;;;;;4.90;4.50;;;;;;;29.10;71.59;99780.52;436824;1255;139529;-62
2023/06/25 04:26:20;;;;;;;4.60;4.00;;;;;;;32.90;61.20;99770.17;436735;1256;139111;-62
2023/06/25 04:36:23;;;;;;;4.70;4.30;;;;;;;35.61;51.72;99773.67;436664;1251;139839;-63
2023/06/25 04:46:26;;;;;;;6.70;3.90;;;;;;;37.97;44.26;99776.20;436444;1254;138622;-62
2023/06/25 04:56:29;;;;;;;3.80;3.50;;;;;;;39.80;39.57;99768.98;436409;1253;138921;-62
2023/06/25 05:06:32;;;;;;;3.20;2.90;;;;;;;41.79;35.35;99764.52;436328;1256;139019;-61
2023/06/25 05:16:36;;;;;;;4.90;2.90;;;;;;;42.64;31.58;99771.89;436515;1255;138955;-61
2023/06/25 05:26:39;;;;;;;3.80;2.90;;;;;;;44.12;29.19;99776.75;436366;1253;139600;-61
2023/06/25 05:36:42;;;;;;;3.30;3.10;;;;;;;45.96;26.92;99774.04;436411;1255;138928;-61
2023/06/25 05:46:45;;;;;;;2.60;2.50;;;;;;;47.46;25.01;99783.02;436823;1253;138508;-61
2023/06/25 05:56:48;;;;;;;3.10;2.90;;;;;;;49.61;23.15;99778.67;436513;1251;139569;-61
2023/06/25 06:06:51;;;;;;;3.60;3.30;;;;;;;50.19;21.50;99771.70;436153;1256;139046;-62
2023/06/25 06:16:54;;;;;;;4.20;4.00;;;;;;;49.86;20.44;99766.95;436162;1256;140041;-62
2023/06/25 06:26:58;;;;;;;3.70;3.40;;;;;;;50.59;19.60;99765.06;436275;1256;138904;-62
2023/06/25 06:37:03;;;;;;;4.40;3.50;;;;;;;51.28;18.62;99763.71;436338;1252;138692;-62
2023/06/25 06:47:06;;;;;;;4.30;3.90;;;;;;;52.48;17.99;99772.77;436819;1254;138758;-64
2023/06/25 06:57:09;;;;;;;4.20;3.90;;;;;;;52.11;17.24;99773.50;436888;1253;138565;-62
2023/06/25 07:07:13;;;;;;;4.60;4.00;;;;;;;52.62;16.66;99772.34;436922;1255;139976;-61
2023/06/25 07:17:16;;;;;;;4.70;4.40;;;;;;;52.80;16.05;99769.61;436725;1254;139232;-62
2023/06/25 07:27:19;;;;;;;4.90;4.70;;;;;;;53.53;15.65;99767.67;436768;1256;139047;-62
2023/06/25 07:37:22;;;;;;;8.00;4.90;;;;;;;53.11;15.68;99767.45;436701;1255;138869;-61
2023/06/25 07:47:26;;;;;;;5.70;4.00;;;;;;;53.18;15.61;99773.56;436614;1254;138962;-62
2023/06/25 07:57:29;;;;;;;5.20;4.60;;;;;;;49.26;16.24;99763.40;437001;1255;138805;-62
2023/06/25 08:07:32;;;;;;;4.00;3.70;;;;;;;40.86;20.10;99756.59;436414;1256;140148;-61
2023/06/25 08:17:37;;;;;;;4.50;4.10;;;;;;;36.17;23.92;99749.38;436839;1256;139540;-61
2023/06/25 08:27:40;;;;;;;5.10;4.60;;;;;;;33.83;26.35;99742.66;437000;1252;139390;-63
2023/06/25 08:37:43;;;;;;;5.00;4.40;;;;;;;32.84;28.13;99740.83;436919;1254;139493;-62
2023/06/25 08:47:53;;;;;;;4.60;4.20;;;;;;;31.84;29.47;99741.44;436596;1257;138708;-64
2023/06/25 08:57:59;;;;;;;3.70;3.40;;;;;;;30.90;30.47;99735.73;436988;1256;139262;-63
2023/06/25 09:08:01;;;;;;;4.70;4.30;;;;;;;31.12;30.98;99729.88;436099;1255;139218;-62
2023/06/25 09:18:05;;;;;;;4.60;3.90;;;;;;;30.92;31.40;99728.77;436768;1254;138605;-63
2023/06/25 09:28:10;;;;;;;4.10;3.80;;;;;;;29.52;32.48;99734.27;436620;1253;138603;-62
2023/06/25 09:38:13;;;;;;;4.10;3.60;;;;;;;29.34;33.59;99725.54;436410;1254;139365;-61
2023/06/25 09:48:22;;;;;;;4.40;4.00;;;;;;;28.87;33.78;99714.71;436281;1250;139435;-62
2023/06/25 09:58:26;;;;;;;6.40;4.30;;;;;;;28.69;34.04;99712.95;436579;1252;139788;-62
2023/06/25 10:08:31;;;;;;;3.90;3.50;;;;;;;28.84;33.66;99707.02;436641;1251;139448;-63
2023/06/25 10:18:42;;;;;;;5.20;3.50;;;;;;;28.32;33.73;99701.29;436894;1251;138384;-61
2023/06/25 10:28:51;;;;;;;5.00;3.70;;;;;;;28.32;33.85;99694.36;436091;1251;139307;-62
2023/06/25 10:38:56;;;;;;;3.60;3.30;;;;;;;28.33;33.79;99694.84;436461;1251;139601;-62
2023/06/25 10:49:00;;;;;;;3.50;3.30;;;;;;;27.57;33.58;99685.76;436603;1251;139791;-62
2023/06/25 10:59:03;;;;;;;4.10;3.40;;;;;;;27.14;33.77;99679.83;436899;1251;140361;-62
2023/06/25 11:09:06;;;;;;;3.80;3.50;;;;;;;27.37;34.93;99678.52;436248;1251;139149;-61
2023/06/25 11:19:09;;;;;;;3.90;3.50;;;;;;;27.51;35.36;99673.92;436234;1251;139146;-61
2023/06/25 11:29:12;;;;;;;3.80;3.40;;;;;;;27.16;35.20;99665.71;436923;1254;138652;-62
2023/06/25 11:39:16;;;;;;;3.70;3.30;;;;;;;26.74;35.39;99670.44;436565;1254;138578;-61
2023/06/25 11:49:20;;;;;;;3.50;3.10;;;;;;;26.88;34.86;99667.41;436650;1254;138830;-63
2023/06/25 11:59:26;;;;;;;3.20;2.60;;;;;;;26.89;34.04;99655.14;436585;1251;139957;-63
2023/06/25 12:09:30;;;;;;;3.30;2.70;;;;;;;26.78;34.17;99640.73;436113;1254;138825;-62
2023/06/25 12:19:32;;;;;;;3.80;2.80;;;;;;;26.73;33.79;99633.02;436335;1251;182321;-61
2023/06/25 12:29:36;;;;;;;2.50;2.30;;;;;;;26.72;33.19;99622.61;437012;1254;138292;-62
2023/06/25 12:39:39;;;;;;;3.80;2.40;;;;;;;26.52;32.61;99610.71;437175;1251;138678;-61
2023/06/25 12:49:42;;;;;;;2.40;2.10;;;;;;;26.44;32.77;99601.83;436569;1251;139544;-61
2023/06/25 12:59:45;;;;;;;3.00;2.70;;;;;;;26.59;32.87;99592.75;436677;1253;138855;-60
2023/06/25 13:09:48;;;;;;;2.40;2.10;;;;;;;26.76;32.92;99584.45;436652;1251;140329;-61
2023/06/25 13:19:53;;;;;;;4.00;3.40;;;;;;;26.86;32.50;99573.39;436353;1251;139851;-62
2023/06/25 13:29:56;;;;;;;2.10;2.00;;;;;;;26.69;32.67;99570.74;436729;1251;139325;-63
2023/06/25 13:39:59;;;;;;;1.70;1.50;;;;;;;26.38;32.53;99567.77;436822;1251;139020;-62
2023/06/25 13:50:03;;;;;;;6.70;2.90;;;;;;;25.82;32.84;99563.27;436740;1251;138654;-62
2023/06/25 14:00:09;;;;;;;4.10;3.00;;;;;;;25.43;33.24;99559.92;437026;1254;139295;-61
2023/06/25 14:10:12;;;;;;;2.00;1.90;;;;;;;25.51;33.13;99559.76;436540;1250;138987;-62
2023/06/25 14:20:15;;;;;;;2.30;2.10;;;;;;;25.49;32.91;99553.03;435916;1251;140006;-62
2023/06/25 14:30:19;;;;;;;3.00;2.80;;;;;;;25.27;33.06;99544.89;435957;1251;164008;-62
2023/06/25 14:40:22;;;;;;;4.30;1.90;;;;;;;25.09;33.32;99539.77;436478;1254;140715;-61
2023/06/25 14:50:25;;;;;;;2.50;2.30;;;;;;;24.84;33.70;99537.41;436193;1250;139151;-61
2023/06/25 15:00:28;;;;;;;4.10;2.60;;;;;;;24.88;34.07;99531.58;436423;1251;139055;-62
2023/06/25 15:10:33;;;;;;;4.30;2.80;;;;;;;25.04;34.29;99520.88;436301;1251;138403;-60
2023/06/25 15:20:36;;;;;;;2.80;2.30;;;;;;;25.21;34.51;99525.55;436592;1253;139101;-61
2023/06/25 15:30:39;;;;;;;2.80;2.40;;;;;;;25.26;34.37;99524.63;436239;1250;140747;-61
2023/06/25 15:40:42;;;;;;;3.00;2.70;;;;;;;24.96;34.57;99521.23;436549;1250;138940;-61
2023/06/25 15:50:45;;;;;;;3.00;2.70;;;;;;;24.62;34.97;99512.91;436311;1254;138738;-61
2023/06/25 16:00:48;;;;;;;2.40;2.00;;;;;;;24.18;35.44;99510.89;436300;1250;139882;-64
2023/06/25 16:10:52;;;;;;;2.90;2.10;;;;;;;23.79;35.95;99507.08;436560;1254;138573;-63
2023/06/25 16:20:55;;;;;;;2.60;2.00;;;;;;;23.57;36.23;99502.39;436087;1250;140100;-62
2023/06/25 16:30:58;;;;;;;4.50;3.30;;;;;;;23.41;36.98;99498.24;436294;1251;138559;-62
2023/06/25 16:41:01;;;;;;;4.30;2.50;;;;;;;23.26;37.27;99491.60;436719;1251;138737;-62
2023/06/25 16:51:04;;;;;;;4.50;2.70;;;;;;;23.12;38.76;99488.95;436180;1251;139470;-62
2023/06/25 17:01:07;;;;;;;5.00;2.80;;;;;;;23.02;39.92;99490.45;436418;1251;138414;-61
2023/06/25 17:11:10;;;;;;;3.20;2.50;;;;;;;22.98;39.94;99489.69;436532;1251;139323;-61
2023/06/25 17:21:13;;;;;;;9.50;5.10;;;;;;;23.01;39.39;99486.69;436312;1253;139963;-61
2023/06/25 17:31:16;;;;;;;2.70;2.20;;;;;;;23.07;38.91;99490.23;436400;1254;140018;-62
2023/06/25 17:41:19;;;;;;;3.70;2.10;;;;;;;23.15;38.34;99483.23;436631;1253;139264;-62
2023/06/25 17:51:22;;;;;;;4.50;2.60;;;;;;;23.19;37.93;99482.35;436595;1253;139497;-61
2023/06/25 18:01:25;;;;;;;3.10;2.30;;;;;;;23.10;37.82;99482.77;437000;1253;139559;-62
2023/06/25 18:11:30;;;;;;;2.60;2.40;;;;;;;22.90;38.08;99486.39;436879;1251;139680;-60
2023/06/25 18:21:33;;;;;;;2.50;2.20;;;;;;;22.68;38.60;99482.79;435811;1254;142587;-62
2023/06/25 18:31:40;;;;;;;4.10;2.70;;;;;;;22.40;39.30;99482.61;436419;1254;138472;-63
2023/06/25 18:41:44;;;;;;;4.00;3.50;;;;;;;22.07;40.69;99482.82;444040;1250;138678;-62
2023/06/25 18:51:48;;;;;;;3.30;2.40;;;;;;;21.70;42.06;99487.11;436553;1251;138774;-61
2023/06/25 19:01:55;;;;;;;10.30;3.40;;;;;;;21.28;43.68;99490.46;436629;1251;139807;-62
2023/06/25 19:11:59;;;;;;;6.20;2.80;;;;;;;20.84;45.46;99496.92;436874;1253;138701;-62
2023/06/25 19:22:02;;;;;;;6.60;3.90;;;;;;;20.40;46.67;99501.70;436688;1254;140475;-62
2023/06/25 19:32:08;;;;;;;6.90;3.20;;;;;;;19.99;47.95;99510.80;436882;1254;141402;-64
2023/06/25 19:42:11;;;;;;;6.70;5.00;;;;;;;19.62;49.43;99513.61;436795;1253;138625;-63
2023/06/25 19:52:14;;;;;;;6.60;3.00;;;;;;;19.32;50.78;99516.58;436757;1251;138726;-61
2023/06/25 20:02:18;;;;;;;3.30;3.00;;;;;;;18.99;52.20;99519.19;436825;1251;140033;-62
2023/06/25 20:12:21;;;;;;;4.50;3.10;;;;;;;18.58;53.12;99519.14;436278;1254;139356;-61
2023/06/25 20:22:24;;;;;;;5.50;4.70;;;;;;;18.22;54.14;99520.58;436459;1253;139287;-61
2023/06/25 20:32:27;;;;;;;4.80;3.20;;;;;;;17.96;55.67;99515.59;436485;1251;139023;-60
2023/06/25 20:42:30;;;;;;;7.60;4.50;;;;;;;17.70;56.71;99519.55;437079;1253;139226;-62
2023/06/25 20:52:33;;;;;;;6.20;4.00;;;;;;;17.43;57.74;99520.89;436989;1253;138633;-62
2023/06/25 21:02:37;;;;;;;11.60;4.90;;;;;;;17.17;58.60;99523.10;436592;1255;140214;-62
2023/06/25 21:12:40;;;;;;;7.10;4.70;;;;;;;16.88;59.62;99523.04;436612;1253;139254;-61
2023/06/25 21:22:43;;;;;;;11.20;5.50;;;;;;;16.61;60.59;99526.54;436542;1250;139170;-61
2023/06/25 21:32:46;;;;;;;7.20;5.70;;;;;;;16.37;61.49;99529.38;436345;1253;139965;-61
2023/06/25 21:42:49;;;;;;;9.20;5.80;;;;;;;16.11;62.70;99527.41;436754;1253;140199;-62
2023/06/25 21:52:52;;;;;;;8.40;4.90;;;;;;;15.89;63.88;99527.95;436746;1253;140099;-62
2023/06/25 22:02:56;;;;;;;7.00;6.00;;;;;;;15.67;64.81;99529.30;436819;1250;139842;-61
2023/06/25 22:13:01;;;;;;;7.60;4.80;;;;;;;15.46;65.46;99522.73;436240;1251;140395;-62
2023/06/25 22:23:04;;;;;;;7.80;6.30;;;;;;;15.26;66.39;99528.32;436159;1253;140720;-61
2023/06/25 22:33:07;;;;;;;8.20;5.70;;;;;;;15.09;67.02;99526.73;435884;1251;140637;-61
2023/06/25 22:43:10;;;;;;;7.30;5.80;;;;;;;14.88;67.72;99521.39;436112;1255;139743;-61
2023/06/25 22:53:13;;;;;;;6.50;5.20;;;;;;;14.70;68.43;99517.08;436559;1251;139014;-63
2023/06/25 23:03:16;;;;;;;11.50;9.60;;;;;;;14.56;69.07;99513.63;436256;1253;139462;-62
2023/06/25 23:13:19;;;;;;;10.10;6.20;;;;;;;14.42;69.51;99512.95;436317;1255;140276;-63
2023/06/25 23:23:22;;;;;;;8.60;6.90;;;;;;;14.25;70.17;99510.68;436478;1251;140981;-62
2023/06/25 23:33:29;;;;;;;8.40;5.80;;;;;;;14.09;71.16;99500.85;436343;1255;139138;-62
2023/06/25 23:43:31;;;;;;;8.70;6.80;;;;;;;13.94;71.40;99498.64;436366;1253;140944;-63
2023/06/25 23:53:35;;;;;;;12.20;9.20;;;;;;;13.81;71.90;99499.51;436796;1253;139280;-62
